Terminal Aerodrome Forecast
Issued by NWS

Home | Current Version | Previous Version | Text Only | Print | Product List | Glossary On
Versions: 1 2 3 4 5 6 7 8 9 10 11 12 13 14 15 16 17 18 19 20
000
FTAK31 PAJN 132336
TAFAYA
TAF
PAYA 132336Z 1400/1424 12020G35KT 3SM RA BR OVC008 WS020/14050KT
     FM140700 12015G25KT 3SM RA BR BKN015 OVC025 WS020/15040KT
     FM141400 10010KT 4SM RA BR OVC015
      AMD LTD TO CLD VIS AND WIND=

USA.gov is the U.S. government's official web portal to all federal, state and local government web resources and services.